Shorkot Weather



Shorkot's Current Weather

Temprature 43.46o scattered clouds

scattered clouds

Rain: 0 %

Min Temprature43.46o
Max Temprature43.46o
Humidity18
Wind Speed1.72 m/h
Sun Rise05:26:33
Sun Set19:19:07
Current Time: 24-Jul-2021 16:09:03
Lat/Lon: 31.9099, 70.8774




Shorkot's Geo Location



Shorkot's Weather Forecast

Time Overall Temp Min Temp Max Temp Humidity Wind Speed Rain
24-Jul-2021 (Sat)
17:00:00 scattered clouds 43.520 43.520 43.520 17 1.92 m/h 0 %
20:00:00 scattered clouds 42.870 41.580 42.870 19 3.33 m/h 0 %
23:00:00 few clouds 40.790 39.430 40.790 23 3.39 m/h 0 %
25-Jul-2021 (Sun)
02:00:00 clear sky 37.530 37.530 37.530 34 4.76 m/h 0 %
05:00:00 clear sky 36.000 36.000 36.000 40 3.67 m/h 0 %
08:00:00 clear sky 38.570 38.570 38.570 34 4.71 m/h 0 %
11:00:00 clear sky 43.030 43.030 43.030 22 3.68 m/h 0 %
14:00:00 clear sky 45.230 45.230 45.230 18 2.9 m/h 0 %
17:00:00 clear sky 45.870 45.870 45.870 16 3.08 m/h 0 %
20:00:00 clear sky 43.420 43.420 43.420 20 3.63 m/h 0 %
23:00:00 clear sky 41.250 41.250 41.250 24 3.45 m/h 0 %
26-Jul-2021 (Mon)
02:00:00 broken clouds 39.560 39.560 39.560 27 3 m/h 0 %
05:00:00 broken clouds 37.240 37.240 37.240 36 2.33 m/h 0 %
08:00:00 scattered clouds 38.940 38.940 38.940 34 3.26 m/h 0 %
11:00:00 scattered clouds 43.180 43.180 43.180 25 3.51 m/h 0 %
14:00:00 few clouds 45.880 45.880 45.880 20 2.9 m/h 0 %
17:00:00 few clouds 46.710 46.710 46.710 18 3.29 m/h 0 %
20:00:00 broken clouds 44.720 44.720 44.720 20 4.56 m/h 0 %
23:00:00 broken clouds 41.350 41.350 41.350 28 8.67 m/h 0 %
27-Jul-2021 (Tue)
02:00:00 overcast clouds 38.440 38.440 38.440 36 5.96 m/h 0 %
05:00:00 overcast clouds 36.940 36.940 36.940 40 4.36 m/h 0 %
08:00:00 overcast clouds 36.290 36.290 36.290 44 4.77 m/h 0 %
11:00:00 overcast clouds 39.720 39.720 39.720 36 3.8 m/h 0 %
14:00:00 scattered clouds 43.340 43.340 43.340 28 4.67 m/h 0 %
17:00:00 scattered clouds 43.810 43.810 43.810 26 6.66 m/h 0 %
20:00:00 scattered clouds 41.750 41.750 41.750 30 7.71 m/h 0 %
23:00:00 scattered clouds 36.710 36.710 36.710 41 10.04 m/h 0 %
28-Jul-2021 (Wed)
02:00:00 light rain 34.640 34.640 34.640 48 7.22 m/h 113 %
05:00:00 light rain 33.150 33.150 33.150 54 4.91 m/h 10 %
08:00:00 clear sky 34.000 34.000 34.000 52 4.17 m/h 0 %
11:00:00 clear sky 37.640 37.640 37.640 41 4.83 m/h 0 %
14:00:00 scattered clouds 40.800 40.800 40.800 32 4.72 m/h 0 %
17:00:00 broken clouds 41.090 41.090 41.090 30 5.76 m/h 0 %
20:00:00 light rain 38.070 38.070 38.070 39 8.33 m/h 32 %
23:00:00 light rain 34.980 34.980 34.980 50 8.29 m/h 50 %
29-Jul-2021 (Thu)
02:00:00 light rain 32.670 32.670 32.670 58 5.71 m/h 99 %
05:00:00 moderate rain 31.190 31.190 31.190 63 4.29 m/h 385 %
08:00:00 light rain 31.750 31.750 31.750 62 4.67 m/h 40 %
11:00:00 overcast clouds 34.940 34.940 34.940 51 2.15 m/h 0 %
14:00:00 overcast clouds 36.550 36.550 36.550 45 1.74 m/h 0 %

Famous Cities (60)